createdAt,value
2018-01-15T00:00:38.010Z,0
2018-01-15T00:01:40.405Z,0
2018-01-15T00:02:42.816Z,0
2018-01-15T00:03:45.500Z,0
2018-01-15T00:04:48.184Z,0
2018-01-15T00:05:50.589Z,0
2018-01-15T00:06:52.984Z,0
2018-01-15T00:07:55.392Z,0
2018-01-15T00:08:57.805Z,0
2018-01-15T00:10:00.197Z,0
2018-01-15T00:11:02.603Z,0
2018-01-15T00:12:05.002Z,0
2018-01-15T00:13:07.409Z,0
2018-01-15T00:14:10.098Z,0
2018-01-15T00:15:12.512Z,0
2018-01-15T00:16:14.892Z,0
2018-01-15T00:17:17.302Z,0
2018-01-15T00:18:19.708Z,0
2018-01-15T00:19:22.109Z,0
2018-01-15T00:20:24.516Z,0
2018-01-15T00:21:26.920Z,0
2018-01-15T00:22:29.326Z,0
2018-01-15T00:23:31.734Z,0
2018-01-15T00:24:34.135Z,0
2018-01-15T00:25:36.545Z,0
2018-01-15T00:26:39.232Z,0
2018-01-15T00:27:41.614Z,0
2018-01-15T00:28:44.029Z,0
2018-01-15T00:29:46.418Z,0
2018-01-15T00:30:48.823Z,0
2018-01-15T00:31:51.513Z,0
2018-01-15T00:32:53.914Z,0
2018-01-15T00:33:56.603Z,0
2018-01-15T00:34:59.005Z,0
2018-01-15T00:36:01.395Z,0
2018-01-15T00:37:03.803Z,0
2018-01-15T00:38:06.202Z,0
2018-01-15T00:39:08.886Z,0
2018-01-15T00:40:11.302Z,0
2018-01-15T00:41:13.701Z,0
2018-01-15T00:42:16.371Z,0
2018-01-15T00:43:18.789Z,0
2018-01-15T00:44:21.183Z,0
2018-01-15T00:45:23.579Z,0
2018-01-15T00:46:25.973Z,0
2018-01-15T00:47:28.377Z,0
2018-01-15T00:48:30.772Z,0
2018-01-15T00:49:33.193Z,0
2018-01-15T00:50:35.582Z,0
2018-01-15T00:51:37.978Z,0
2018-01-15T00:52:40.379Z,0
2018-01-15T00:53:42.792Z,0
2018-01-15T00:54:45.189Z,0
2018-01-15T00:55:47.589Z,0
2018-01-15T00:56:49.983Z,0
2018-01-15T00:57:52.390Z,0
2018-01-15T00:58:54.795Z,0
2018-01-15T00:59:57.201Z,0
2018-01-15T01:00:59.598Z,0
2018-01-15T01:02:01.999Z,0
2018-01-15T01:03:04.405Z,0
2018-01-15T01:04:07.107Z,0
2018-01-15T01:05:09.507Z,0
2018-01-15T01:06:11.916Z,0
2018-01-15T01:07:14.315Z,0
2018-01-15T01:08:17.000Z,0
2018-01-15T01:09:19.705Z,0
2018-01-15T01:10:22.101Z,0
2018-01-15T01:11:24.507Z,0
2018-01-15T01:12:26.916Z,0
2018-01-15T01:13:29.317Z,0
2018-01-15T01:14:31.722Z,0
2018-01-15T01:15:34.391Z,0
2018-01-15T01:16:36.798Z,0
2018-01-15T01:17:39.207Z,0
2018-01-15T01:18:41.609Z,0
2018-01-15T01:19:44.011Z,0
2018-01-15T01:20:46.405Z,0
2018-01-15T01:21:49.384Z,0
2018-01-15T01:22:51.782Z,0
2018-01-15T01:23:54.178Z,0
2018-01-15T01:24:56.586Z,0
2018-01-15T01:25:59.257Z,0
2018-01-15T01:27:01.664Z,0
2018-01-15T01:28:04.374Z,0
2018-01-15T01:29:07.344Z,0
2018-01-15T01:30:09.755Z,0
2018-01-15T01:31:12.149Z,0
2018-01-15T01:32:14.848Z,0
2018-01-15T01:33:17.258Z,0
2018-01-15T01:34:19.651Z,0
2018-01-15T01:35:22.056Z,0
2018-01-15T01:36:24.462Z,0
2018-01-15T01:37:26.863Z,0
2018-01-15T01:38:29.264Z,0
2018-01-15T01:39:31.664Z,0
2018-01-15T01:40:34.337Z,0
2018-01-15T01:41:36.749Z,0
2018-01-15T01:42:39.146Z,0
2018-01-15T01:43:41.550Z,0
2018-01-15T01:44:43.959Z,0
2018-01-15T01:45:46.354Z,0
2018-01-15T01:46:48.761Z,0
2018-01-15T01:47:51.169Z,0
2018-01-15T01:48:53.564Z,0
2018-01-15T01:49:55.965Z,0
2018-01-15T01:50:58.382Z,0
2018-01-15T01:52:01.081Z,0
2018-01-15T01:53:03.479Z,0
2018-01-15T01:54:05.884Z,0
2018-01-15T01:55:08.286Z,0
2018-01-15T01:56:10.693Z,0
2018-01-15T01:57:13.100Z,0
2018-01-15T01:58:15.489Z,0
2018-01-15T01:59:17.896Z,0
2018-01-15T02:00:20.317Z,0
2018-01-15T02:01:22.714Z,0
2018-01-15T02:02:25.114Z,0
2018-01-15T02:03:27.510Z,0
2018-01-15T02:04:29.904Z,0
2018-01-15T02:05:32.363Z,0
2018-01-15T02:06:34.718Z,0
2018-01-15T02:07:37.115Z,0
2018-01-15T02:08:39.518Z,0
2018-01-15T02:09:42.207Z,0
2018-01-15T02:10:44.900Z,0
2018-01-15T02:11:47.299Z,0
2018-01-15T02:12:49.694Z,0
2018-01-15T02:13:52.679Z,0
2018-01-15T02:14:55.092Z,0
2018-01-15T02:15:57.778Z,0
2018-01-15T02:17:00.170Z,0
2018-01-15T02:18:02.570Z,0
2018-01-15T02:19:05.250Z,0
2018-01-15T02:20:07.648Z,0
2018-01-15T02:21:10.042Z,0
2018-01-15T02:22:12.451Z,0
2018-01-15T02:23:14.853Z,0
2018-01-15T02:24:17.242Z,0
2018-01-15T02:25:19.650Z,0
2018-01-15T02:26:22.054Z,0
2018-01-15T02:27:24.448Z,0
2018-01-15T02:28:26.857Z,0
2018-01-15T02:29:29.263Z,0
2018-01-15T02:30:31.661Z,0
2018-01-15T02:31:34.079Z,0
2018-01-15T02:32:36.477Z,0
2018-01-15T02:33:38.868Z,0
2018-01-15T02:34:41.270Z,0
2018-01-15T02:35:43.664Z,0
2018-01-15T02:36:46.073Z,0
2018-01-15T02:37:48.475Z,0
2018-01-15T02:38:50.861Z,0
2018-01-15T02:39:53.268Z,0
2018-01-15T02:40:55.672Z,0
2018-01-15T02:41:58.075Z,0
2018-01-15T02:43:00.482Z,0
2018-01-15T02:44:02.890Z,0
2018-01-15T02:45:05.292Z,0
2018-01-15T02:46:07.703Z,0
2018-01-15T02:47:10.107Z,0
2018-01-15T02:48:12.499Z,0
2018-01-15T02:49:14.897Z,0
2018-01-15T02:50:17.601Z,0
2018-01-15T02:51:20.004Z,0
2018-01-15T02:52:22.404Z,0
2018-01-15T02:53:24.810Z,0
2018-01-15T02:54:27.510Z,0
2018-01-15T02:55:30.184Z,0
2018-01-15T02:56:32.598Z,0
2018-01-15T02:57:34.984Z,0
2018-01-15T02:58:37.395Z,0
2018-01-15T02:59:39.790Z,0
2018-01-15T03:00:42.199Z,0
2018-01-15T03:01:44.884Z,0
2018-01-15T03:02:47.285Z,0
2018-01-15T03:03:49.975Z,0
2018-01-15T03:04:52.672Z,0
2018-01-15T03:05:55.346Z,0
2018-01-15T03:06:58.044Z,0
2018-01-15T03:08:00.442Z,0
2018-01-15T03:09:02.852Z,0
2018-01-15T03:10:05.251Z,0
2018-01-15T03:11:07.658Z,0
2018-01-15T03:12:10.051Z,0
2018-01-15T03:13:12.461Z,0
2018-01-15T03:14:14.859Z,0
2018-01-15T03:15:17.260Z,0
2018-01-15T03:16:19.660Z,0
2018-01-15T03:17:22.063Z,0
2018-01-15T03:18:24.460Z,0
2018-01-15T03:19:26.882Z,0
2018-01-15T03:20:29.562Z,0
2018-01-15T03:21:31.952Z,0
2018-01-15T03:22:34.360Z,0
2018-01-15T03:23:36.757Z,0
2018-01-15T03:24:39.168Z,0
2018-01-15T03:25:41.571Z,0
2018-01-15T03:26:43.961Z,0
2018-01-15T03:27:46.365Z,0
2018-01-15T03:28:48.781Z,0
2018-01-15T03:29:51.210Z,0
2018-01-15T03:30:53.581Z,0
2018-01-15T03:31:55.981Z,0
2018-01-15T03:32:58.386Z,0
2018-01-15T03:34:00.792Z,0
2018-01-15T03:35:03.196Z,0
2018-01-15T03:36:05.599Z,0
2018-01-15T03:37:08.004Z,0
2018-01-15T03:38:10.408Z,0
2018-01-15T03:39:12.814Z,0
2018-01-15T03:40:15.204Z,0
2018-01-15T03:41:17.614Z,0
2018-01-15T03:42:20.011Z,0
2018-01-15T03:43:22.411Z,0
2018-01-15T03:44:24.820Z,0
2018-01-15T03:45:27.226Z,0
2018-01-15T03:46:29.626Z,0
2018-01-15T03:47:32.043Z,0
2018-01-15T03:48:34.721Z,0
2018-01-15T03:49:37.122Z,0
2018-01-15T03:50:39.814Z,0
2018-01-15T03:51:42.219Z,0
2018-01-15T03:52:44.607Z,0
2018-01-15T03:53:47.019Z,0
2018-01-15T03:54:49.751Z,0
2018-01-15T03:55:52.146Z,0
2018-01-15T03:56:54.554Z,0
2018-01-15T03:57:56.954Z,0
2018-01-15T03:58:59.649Z,0
2018-01-15T04:00:02.630Z,0
2018-01-15T04:01:05.033Z,0
2018-01-15T04:02:07.430Z,0
2018-01-15T04:03:10.118Z,0
2018-01-15T04:04:12.513Z,0
2018-01-15T04:05:14.922Z,0
2018-01-15T04:06:17.332Z,0
2018-01-15T04:07:19.726Z,0
2018-01-15T04:08:22.131Z,0
2018-01-15T04:09:24.527Z,0
2018-01-15T04:10:26.926Z,0
2018-01-15T04:11:29.348Z,0
2018-01-15T04:12:31.748Z,0
2018-01-15T04:13:34.138Z,0
2018-01-15T04:14:36.838Z,0
2018-01-15T04:15:39.239Z,0
2018-01-15T04:16:41.644Z,0
2018-01-15T04:17:44.049Z,0
2018-01-15T04:18:46.450Z,0
2018-01-15T04:19:49.143Z,0
2018-01-15T04:20:51.543Z,0
2018-01-15T04:21:53.943Z,0
2018-01-15T04:22:56.350Z,0
2018-01-15T04:23:58.754Z,0
2018-01-15T04:25:01.157Z,0
2018-01-15T04:26:03.562Z,0
2018-01-15T04:27:05.960Z,0
2018-01-15T04:28:08.366Z,0
2018-01-15T04:29:10.770Z,0
2018-01-15T04:30:13.167Z,0
2018-01-15T04:31:15.569Z,0
2018-01-15T04:32:17.978Z,0
2018-01-15T04:33:20.665Z,0
2018-01-15T04:34:23.070Z,0
2018-01-15T04:35:25.461Z,0
2018-01-15T04:36:27.866Z,0
2018-01-15T04:37:30.281Z,0
2018-01-15T04:38:32.674Z,0
2018-01-15T04:39:35.349Z,0
2018-01-15T04:40:37.757Z,0
2018-01-15T04:41:40.154Z,0
2018-01-15T04:42:42.558Z,0
2018-01-15T04:43:44.962Z,0
2018-01-15T04:44:47.351Z,0
2018-01-15T04:45:49.758Z,0
2018-01-15T04:46:52.176Z,0
2018-01-15T04:47:54.882Z,0
2018-01-15T04:48:57.289Z,0
2018-01-15T04:49:59.684Z,0
2018-01-15T04:51:02.092Z,0
2018-01-15T04:52:04.477Z,0
2018-01-15T04:53:07.185Z,0
2018-01-15T04:54:09.878Z,0
2018-01-15T04:55:12.282Z,0
2018-01-15T04:56:14.690Z,0
2018-01-15T04:57:17.090Z,0
2018-01-15T04:58:19.492Z,0
2018-01-15T04:59:21.899Z,0
2018-01-15T05:00:24.304Z,0
2018-01-15T05:01:26.697Z,0
2018-01-15T05:02:29.104Z,0
2018-01-15T05:03:31.490Z,0
2018-01-15T05:04:33.889Z,0
2018-01-15T05:05:36.292Z,0
2018-01-15T05:06:38.696Z,0
2018-01-15T05:07:41.094Z,0
2018-01-15T05:08:43.509Z,0
2018-01-15T05:09:45.903Z,0
2018-01-15T05:10:48.612Z,0
2018-01-15T05:11:51.337Z,0
2018-01-15T05:12:53.704Z,0
2018-01-15T05:13:56.097Z,0
2018-01-15T05:14:58.502Z,0
2018-01-15T05:16:00.904Z,0
2018-01-15T05:17:03.313Z,0
2018-01-15T05:18:05.707Z,0
2018-01-15T05:19:08.111Z,0
2018-01-15T05:20:10.798Z,0
2018-01-15T05:21:13.205Z,0
2018-01-15T05:22:15.593Z,0
2018-01-15T05:23:18.005Z,0
2018-01-15T05:24:20.402Z,0
2018-01-15T05:25:22.818Z,0
2018-01-15T05:26:25.213Z,0
2018-01-15T05:27:27.611Z,0
2018-01-15T05:28:30.014Z,0
2018-01-15T05:29:32.704Z,0
2018-01-15T05:30:35.109Z,0
2018-01-15T05:31:37.508Z,0
2018-01-15T05:32:39.913Z,0
2018-01-15T05:33:42.311Z,0
2018-01-15T05:34:44.726Z,0
2018-01-15T05:35:47.121Z,0
2018-01-15T05:36:49.512Z,0
2018-01-15T05:37:52.229Z,0
2018-01-15T05:38:54.920Z,0
2018-01-15T05:39:57.328Z,0
2018-01-15T05:40:59.733Z,0
2018-01-15T05:42:02.711Z,0
2018-01-15T05:43:05.402Z,0
2018-01-15T05:44:07.814Z,0
2018-01-15T05:45:10.212Z,0
2018-01-15T05:46:12.609Z,0
2018-01-15T05:47:15.014Z,0
2018-01-15T05:48:17.415Z,0
2018-01-15T05:49:19.813Z,0
2018-01-15T05:50:22.222Z,0
2018-01-15T05:51:24.620Z,0
2018-01-15T05:52:27.304Z,0
2018-01-15T05:53:29.703Z,0
2018-01-15T05:54:32.106Z,0
2018-01-15T05:55:34.789Z,0
2018-01-15T05:56:37.197Z,0
2018-01-15T05:57:39.596Z,0
2018-01-15T05:58:41.999Z,0
2018-01-15T05:59:44.736Z,0
2018-01-15T06:00:47.088Z,0
2018-01-15T06:01:49.771Z,0
2018-01-15T06:02:52.174Z,0
2018-01-15T06:03:54.583Z,0
2018-01-15T06:04:56.979Z,0
2018-01-15T06:05:59.388Z,0
2018-01-15T06:07:01.797Z,0
2018-01-15T06:08:04.188Z,0
2018-01-15T06:09:06.606Z,0
2018-01-15T06:10:08.998Z,0
2018-01-15T06:11:11.402Z,0
2018-01-15T06:12:13.806Z,0
2018-01-15T06:13:16.486Z,0
2018-01-15T06:14:19.164Z,0
2018-01-15T06:15:21.570Z,0
2018-01-15T06:16:23.965Z,0
2018-01-15T06:17:26.362Z,0
2018-01-15T06:18:28.764Z,0
2018-01-15T06:19:31.453Z,0
2018-01-15T06:20:33.857Z,0
2018-01-15T06:21:36.543Z,0
2018-01-15T06:22:38.947Z,0
2018-01-15T06:23:41.349Z,0
2018-01-15T06:24:43.761Z,0
2018-01-15T06:25:46.160Z,0
2018-01-15T06:26:48.568Z,0
2018-01-15T06:27:50.968Z,0
2018-01-15T06:28:53.374Z,0
2018-01-15T06:29:55.773Z,0
2018-01-15T06:30:58.187Z,0
2018-01-15T06:32:00.582Z,0
2018-01-15T06:33:03.270Z,0
2018-01-15T06:34:05.677Z,0
2018-01-15T06:35:08.086Z,0
2018-01-15T06:36:10.490Z,0
2018-01-15T06:37:12.885Z,0
2018-01-15T06:38:15.291Z,0
2018-01-15T06:39:17.692Z,0
2018-01-15T06:40:20.089Z,0
2018-01-15T06:41:22.497Z,0
2018-01-15T06:42:24.887Z,0
2018-01-15T06:43:27.301Z,0
2018-01-15T06:44:29.705Z,0
2018-01-15T06:45:32.105Z,0
2018-01-15T06:46:34.792Z,0
2018-01-15T06:47:37.201Z,0
2018-01-15T06:48:39.594Z,0
2018-01-15T06:49:42.001Z,0
2018-01-15T06:50:44.402Z,0
2018-01-15T06:51:46.803Z,0
2018-01-15T06:52:49.201Z,0
2018-01-15T06:53:51.885Z,0
2018-01-15T06:54:54.282Z,0
2018-01-15T06:55:56.981Z,0
2018-01-15T06:56:59.659Z,0
2018-01-15T06:58:02.365Z,0
2018-01-15T06:59:04.770Z,0
2018-01-15T07:00:07.167Z,0
2018-01-15T07:01:09.862Z,0
2018-01-15T07:02:12.263Z,0
2018-01-15T07:03:14.676Z,0
2018-01-15T07:04:17.070Z,0
2018-01-15T07:05:19.477Z,0
2018-01-15T07:06:21.879Z,0
2018-01-15T07:07:24.287Z,0
2018-01-15T07:08:26.684Z,0
2018-01-15T07:09:29.082Z,0
2018-01-15T07:10:31.504Z,1
2018-01-15T07:11:33.885Z,1
2018-01-15T07:12:36.288Z,1
2018-01-15T07:13:38.688Z,1
2018-01-15T07:14:41.096Z,1
2018-01-15T07:15:43.506Z,1
2018-01-15T07:16:45.895Z,1
2018-01-15T07:17:48.296Z,2
2018-01-15T07:18:50.698Z,2
2018-01-15T07:19:53.098Z,2
2018-01-15T07:20:56.061Z,2
2018-01-15T07:21:58.475Z,2
2018-01-15T07:23:00.874Z,3
2018-01-15T07:24:03.284Z,3
2018-01-15T07:25:05.675Z,3
2018-01-15T07:26:08.085Z,3
2018-01-15T07:27:10.479Z,4
2018-01-15T07:28:13.170Z,4
2018-01-15T07:29:15.859Z,4
2018-01-15T07:30:18.269Z,4
2018-01-15T07:31:20.661Z,5
2018-01-15T07:32:23.355Z,5
2018-01-15T07:33:25.753Z,5
2018-01-15T07:34:28.164Z,6
2018-01-15T07:35:30.841Z,6
2018-01-15T07:36:33.250Z,6
2018-01-15T07:37:35.639Z,7
2018-01-15T07:38:38.052Z,7
2018-01-15T07:39:40.440Z,7
2018-01-15T07:40:42.847Z,8
2018-01-15T07:41:45.248Z,8
2018-01-15T07:42:47.657Z,9
2018-01-15T07:43:50.343Z,10
2018-01-15T07:44:52.747Z,10
2018-01-15T07:45:55.147Z,11
2018-01-15T07:46:58.162Z,12
2018-01-15T07:48:01.575Z,12
2018-01-15T07:49:04.266Z,13
2018-01-15T07:50:06.933Z,14
2018-01-15T07:51:10.066Z,14
2018-01-15T07:52:13.443Z,14
2018-01-15T07:53:16.330Z,15
2018-01-15T07:54:21.078Z,17
2018-01-15T07:55:24.553Z,17
2018-01-15T07:56:29.333Z,18
2018-01-15T07:57:31.987Z,19
2018-01-15T07:58:34.447Z,18
2018-01-15T07:59:36.851Z,16
2018-01-15T08:00:39.246Z,16
2018-01-15T08:01:41.654Z,17
2018-01-15T08:02:44.322Z,17
2018-01-15T08:03:47.009Z,17
2018-01-15T08:04:49.422Z,19
2018-01-15T08:05:51.820Z,19
2018-01-15T08:06:54.225Z,19
2018-01-15T08:07:56.625Z,19
2018-01-15T08:08:59.036Z,19
2018-01-15T08:10:01.456Z,20
2018-01-15T08:11:03.859Z,20
2018-01-15T08:12:06.254Z,21
2018-01-15T08:13:08.662Z,21
2018-01-15T08:14:11.919Z,22
2018-01-15T08:15:14.607Z,22
2018-01-15T08:16:17.005Z,23
2018-01-15T08:17:19.703Z,25
2018-01-15T08:18:22.109Z,27
2018-01-15T08:19:24.803Z,30
2018-01-15T08:20:27.211Z,28
2018-01-15T08:21:29.628Z,28
2018-01-15T08:22:32.028Z,32
2018-01-15T08:23:34.445Z,35
2018-01-15T08:24:37.125Z,38
2018-01-15T08:25:39.530Z,39
2018-01-15T08:26:41.925Z,40
2018-01-15T08:27:44.327Z,42
2018-01-15T08:28:47.014Z,45
2018-01-15T08:29:49.421Z,49
2018-01-15T08:30:52.113Z,51
2018-01-15T08:31:54.516Z,50
2018-01-15T08:32:56.921Z,51
2018-01-15T08:33:59.324Z,51
2018-01-15T08:35:01.731Z,52
2018-01-15T08:36:04.145Z,54
2018-01-15T08:37:06.545Z,58
2018-01-15T08:38:08.955Z,60
2018-01-15T08:39:11.364Z,61
2018-01-15T08:40:13.765Z,61
2018-01-15T08:41:16.167Z,43
2018-01-15T08:42:18.576Z,62
2018-01-15T08:43:20.973Z,63
2018-01-15T08:44:23.371Z,65
2018-01-15T08:45:25.784Z,63
2018-01-15T08:46:28.189Z,63
2018-01-15T08:47:30.585Z,65
2018-01-15T08:48:32.997Z,70
2018-01-15T08:49:35.407Z,74
2018-01-15T08:50:37.808Z,66
2018-01-15T08:51:40.209Z,64
2018-01-15T08:52:42.612Z,33
2018-01-15T08:53:45.010Z,30
2018-01-15T08:54:47.712Z,30
2018-01-15T08:55:50.115Z,32
2018-01-15T08:56:52.517Z,32
2018-01-15T08:57:54.923Z,36
2018-01-15T08:58:57.326Z,71
2018-01-15T09:00:00.299Z,39
2018-01-15T09:01:02.728Z,37
2018-01-15T09:02:05.653Z,39
2018-01-15T09:03:08.064Z,43
2018-01-15T09:04:10.487Z,46
2018-01-15T09:05:12.877Z,47
2018-01-15T09:06:15.584Z,42
2018-01-15T09:07:17.992Z,38
2018-01-15T09:08:20.396Z,36
2018-01-15T09:09:22.804Z,38
2018-01-15T09:10:25.249Z,41
2018-01-15T09:11:27.619Z,43
2018-01-15T09:12:30.021Z,44
2018-01-15T09:13:32.731Z,48
2018-01-15T09:14:35.135Z,48
2018-01-15T09:15:37.823Z,53
2018-01-15T09:16:40.236Z,103
2018-01-15T09:17:42.623Z,107
2018-01-15T09:18:45.036Z,108
2018-01-15T09:19:48.176Z,109
2018-01-15T09:20:51.135Z,115
2018-01-15T09:21:53.802Z,117
2018-01-15T09:22:56.369Z,68
2018-01-15T09:23:58.797Z,52
2018-01-15T09:25:01.501Z,46
2018-01-15T09:26:03.896Z,46
2018-01-15T09:27:06.304Z,45
2018-01-15T09:28:08.718Z,42
2018-01-15T09:29:11.116Z,40
2018-01-15T09:30:13.526Z,39
2018-01-15T09:31:15.929Z,37
2018-01-15T09:32:18.328Z,34
2018-01-15T09:33:20.745Z,32
2018-01-15T09:34:23.146Z,31
2018-01-15T09:35:25.544Z,31
2018-01-15T09:36:28.238Z,32
2018-01-15T09:37:30.636Z,34
2018-01-15T09:38:33.043Z,34
2018-01-15T09:39:35.754Z,34
2018-01-15T09:40:38.160Z,34
2018-01-15T09:41:40.558Z,33
2018-01-15T09:42:42.984Z,32
2018-01-15T09:43:45.380Z,31
2018-01-15T09:44:48.054Z,30
2018-01-15T09:45:50.469Z,29
2018-01-15T09:46:52.873Z,30
2018-01-15T09:47:55.278Z,32
2018-01-15T09:48:57.684Z,34
2018-01-15T09:50:00.087Z,36
2018-01-15T09:51:02.834Z,38
2018-01-15T09:52:05.653Z,42
2018-01-15T09:53:08.941Z,47
2018-01-15T09:54:12.014Z,51
2018-01-15T09:55:15.016Z,57
2018-01-15T09:56:17.608Z,59
2018-01-15T09:57:20.228Z,62
2018-01-15T09:58:23.282Z,77
2018-01-15T09:59:25.713Z,56
2018-01-15T10:00:28.453Z,56
2018-01-15T10:01:30.967Z,61
2018-01-15T10:02:33.417Z,69
2018-01-15T10:03:35.819Z,71
2018-01-15T10:04:38.222Z,78
2018-01-15T10:05:40.627Z,122
2018-01-15T10:06:43.032Z,126
2018-01-15T10:07:45.429Z,66
2018-01-15T10:08:47.831Z,60
2018-01-15T10:09:50.234Z,63
2018-01-15T10:10:52.647Z,74
2018-01-15T10:11:55.345Z,70
2018-01-15T10:12:57.753Z,68
2018-01-15T10:14:00.155Z,65
2018-01-15T10:15:02.566Z,65
2018-01-15T10:16:04.969Z,67
2018-01-15T10:17:07.382Z,67
2018-01-15T10:18:10.075Z,67
2018-01-15T10:19:12.474Z,68
2018-01-15T10:20:15.155Z,67
2018-01-15T10:21:17.563Z,74
2018-01-15T10:22:19.968Z,82
2018-01-15T10:23:22.372Z,89
2018-01-15T10:24:24.778Z,103
2018-01-15T10:25:27.188Z,117
2018-01-15T10:26:29.596Z,115
2018-01-15T10:27:32.015Z,150
2018-01-15T10:28:34.408Z,86
2018-01-15T10:29:37.103Z,84
2018-01-15T10:30:39.512Z,96
2018-01-15T10:31:41.919Z,92
2018-01-15T10:32:44.323Z,95
2018-01-15T10:33:46.735Z,88
2018-01-15T10:34:49.128Z,92
2018-01-15T10:35:51.535Z,131
2018-01-15T10:36:54.798Z,137
2018-01-15T10:37:57.196Z,93
2018-01-15T10:38:59.605Z,75
2018-01-15T10:40:02.018Z,139
2018-01-15T10:41:04.428Z,142
2018-01-15T10:42:06.842Z,135
2018-01-15T10:43:09.250Z,77
2018-01-15T10:44:11.642Z,80
2018-01-15T10:45:14.055Z,90
2018-01-15T10:46:16.461Z,155
2018-01-15T10:47:18.877Z,166
2018-01-15T10:48:21.278Z,168
2018-01-15T10:49:23.690Z,180
2018-01-15T10:50:26.092Z,174
2018-01-15T10:51:28.502Z,155
2018-01-15T10:52:30.914Z,168
2018-01-15T10:53:33.313Z,171
2018-01-15T10:54:35.719Z,174
2018-01-15T10:55:38.127Z,179
2018-01-15T10:56:40.531Z,175
2018-01-15T10:57:42.935Z,164
2018-01-15T10:58:45.335Z,178
2018-01-15T10:59:47.752Z,182
2018-01-15T11:00:50.163Z,100
2018-01-15T11:01:52.579Z,107
2018-01-15T11:02:54.983Z,122
2018-01-15T11:03:57.398Z,130
2018-01-15T11:04:59.798Z,76
2018-01-15T11:06:02.220Z,64
2018-01-15T11:07:04.622Z,57
2018-01-15T11:08:07.019Z,54
2018-01-15T11:09:09.428Z,46
2018-01-15T11:10:11.833Z,43
2018-01-15T11:11:14.243Z,44
2018-01-15T11:12:16.930Z,40
2018-01-15T11:13:19.342Z,35
2018-01-15T11:14:21.790Z,35
2018-01-15T11:15:24.150Z,32
2018-01-15T11:16:26.560Z,30
2018-01-15T11:17:29.263Z,30
2018-01-15T11:18:31.665Z,31
2018-01-15T11:19:34.068Z,33
2018-01-15T11:20:36.483Z,31
2018-01-15T11:21:39.233Z,29
2018-01-15T11:22:41.922Z,24
2018-01-15T11:23:44.334Z,21
2018-01-15T11:24:47.057Z,24
2018-01-15T11:25:49.534Z,26
2018-01-15T11:26:51.884Z,29
2018-01-15T11:27:54.725Z,36
2018-01-15T11:28:57.143Z,37
2018-01-15T11:29:59.545Z,34
2018-01-15T11:31:01.953Z,29
2018-01-15T11:32:04.373Z,27
2018-01-15T11:33:07.077Z,26
2018-01-15T11:34:09.475Z,24
2018-01-15T11:35:11.881Z,25
2018-01-15T11:36:14.283Z,26
2018-01-15T11:37:16.689Z,28
2018-01-15T11:38:19.091Z,28
2018-01-15T11:39:21.497Z,26
2018-01-15T11:40:23.898Z,26
2018-01-15T11:41:26.317Z,34
2018-01-15T11:42:28.736Z,37
2018-01-15T11:43:31.119Z,39
2018-01-15T11:44:33.529Z,40
2018-01-15T11:45:36.218Z,36
2018-01-15T11:46:38.632Z,31
2018-01-15T11:47:41.317Z,31
2018-01-15T11:48:43.734Z,34
2018-01-15T11:49:46.132Z,41
2018-01-15T11:50:48.554Z,43
2018-01-15T11:51:50.959Z,41
2018-01-15T11:52:53.365Z,43
2018-01-15T11:53:55.766Z,48
2018-01-15T11:54:58.177Z,48
2018-01-15T11:56:00.873Z,49
2018-01-15T11:57:03.284Z,51
2018-01-15T11:58:05.679Z,51
2018-01-15T11:59:08.093Z,52
2018-01-15T12:00:10.493Z,54
2018-01-15T12:01:12.907Z,57
2018-01-15T12:02:15.588Z,58
2018-01-15T12:03:18.281Z,62
2018-01-15T12:04:20.682Z,73
2018-01-15T12:05:23.097Z,75
2018-01-15T12:06:25.492Z,75
2018-01-15T12:07:27.904Z,74
2018-01-15T12:08:30.309Z,80
2018-01-15T12:09:32.723Z,100
2018-01-15T12:10:35.698Z,106
2018-01-15T12:11:38.123Z,123
2018-01-15T12:12:40.819Z,144
2018-01-15T12:13:43.229Z,99
2018-01-15T12:14:46.196Z,97
2018-01-15T12:15:49.302Z,114
2018-01-15T12:16:51.878Z,112
2018-01-15T12:17:54.597Z,83
2018-01-15T12:18:57.004Z,88
2018-01-15T12:19:59.422Z,124
2018-01-15T12:21:02.391Z,128
2018-01-15T12:22:05.125Z,170
2018-01-15T12:23:07.526Z,95
2018-01-15T12:24:09.930Z,81
2018-01-15T12:25:12.617Z,79
2018-01-15T12:26:15.027Z,78
2018-01-15T12:27:17.435Z,79
2018-01-15T12:28:19.851Z,79
2018-01-15T12:29:22.246Z,77
2018-01-15T12:30:24.670Z,76
2018-01-15T12:31:27.087Z,72
2018-01-15T12:32:29.797Z,69
2018-01-15T12:33:32.208Z,63
2018-01-15T12:34:34.613Z,57
2018-01-15T12:35:37.018Z,55
2018-01-15T12:36:39.439Z,53
2018-01-15T12:37:41.842Z,52
2018-01-15T12:38:44.533Z,54
2018-01-15T12:39:46.934Z,53
2018-01-15T12:40:49.337Z,52
2018-01-15T12:41:51.747Z,50
2018-01-15T12:42:54.151Z,45
2018-01-15T12:43:56.565Z,44
2018-01-15T12:44:58.972Z,38
2018-01-15T12:46:01.377Z,35
2018-01-15T12:47:03.790Z,34
2018-01-15T12:48:06.195Z,34
2018-01-15T12:49:08.605Z,32
2018-01-15T12:50:11.026Z,31
2018-01-15T12:51:13.705Z,30
2018-01-15T12:52:16.971Z,29
2018-01-15T12:53:19.379Z,30
2018-01-15T12:54:22.076Z,32
2018-01-15T12:55:24.485Z,32
2018-01-15T12:56:26.898Z,35
2018-01-15T12:57:29.299Z,36
2018-01-15T12:58:31.708Z,39
2018-01-15T12:59:34.117Z,41
2018-01-15T13:00:36.525Z,43
2018-01-15T13:01:38.932Z,43
2018-01-15T13:02:41.344Z,42
2018-01-15T13:03:43.748Z,43
2018-01-15T13:04:46.192Z,43
2018-01-15T13:05:48.576Z,44
2018-01-15T13:06:50.979Z,45
2018-01-15T13:07:53.439Z,46
2018-01-15T13:08:55.850Z,47
2018-01-15T13:09:58.253Z,46
2018-01-15T13:11:00.663Z,48
2018-01-15T13:12:03.065Z,48
2018-01-15T13:13:05.472Z,48
2018-01-15T13:14:07.883Z,49
2018-01-15T13:15:10.298Z,48
2018-01-15T13:16:12.711Z,51
2018-01-15T13:17:15.367Z,51
2018-01-15T13:18:17.795Z,50
2018-01-15T13:19:20.196Z,47
2018-01-15T13:20:22.595Z,45
2018-01-15T13:21:25.011Z,44
2018-01-15T13:22:27.409Z,44
2018-01-15T13:23:29.828Z,43
2018-01-15T13:24:32.236Z,43
2018-01-15T13:25:34.650Z,41
2018-01-15T13:26:37.334Z,41
2018-01-15T13:27:40.031Z,40
2018-01-15T13:28:42.439Z,40
2018-01-15T13:29:44.852Z,40
2018-01-15T13:30:47.554Z,40
2018-01-15T13:31:49.964Z,40
2018-01-15T13:32:52.382Z,39
2018-01-15T13:33:54.794Z,38
2018-01-15T13:34:57.201Z,37
2018-01-15T13:35:59.604Z,36
2018-01-15T13:37:02.005Z,35
2018-01-15T13:38:04.421Z,34
2018-01-15T13:39:06.821Z,33
2018-01-15T13:40:09.234Z,33
2018-01-15T13:41:11.640Z,32
2018-01-15T13:42:14.051Z,30
2018-01-15T13:43:16.471Z,29
2018-01-15T13:44:19.159Z,28
2018-01-15T13:45:21.574Z,27
2018-01-15T13:46:24.265Z,26
2018-01-15T13:47:26.661Z,25
2018-01-15T13:48:29.083Z,24
2018-01-15T13:49:31.487Z,23
2018-01-15T13:50:33.903Z,23
2018-01-15T13:51:36.875Z,22
2018-01-15T13:52:39.283Z,21
2018-01-15T13:53:41.691Z,21
2018-01-15T13:54:44.104Z,20
2018-01-15T13:55:46.507Z,20
2018-01-15T13:56:49.030Z,20
2018-01-15T13:57:51.439Z,20
2018-01-15T13:58:53.950Z,22
2018-01-15T13:59:56.387Z,21
2018-01-15T14:00:58.798Z,21
2018-01-15T14:02:01.195Z,21
2018-01-15T14:03:03.617Z,21
2018-01-15T14:04:06.316Z,21
2018-01-15T14:05:08.722Z,21
2018-01-15T14:06:11.130Z,21
2018-01-15T14:07:13.534Z,22
2018-01-15T14:08:15.939Z,22
2018-01-15T14:09:18.368Z,22
2018-01-15T14:10:20.773Z,22
2018-01-15T14:11:23.441Z,22
2018-01-15T14:12:25.851Z,23
2018-01-15T14:13:28.272Z,23
2018-01-15T14:14:30.679Z,24
2018-01-15T14:15:33.081Z,24
2018-01-15T14:16:35.484Z,24
2018-01-15T14:17:38.762Z,24
2018-01-15T14:18:41.180Z,24
2018-01-15T14:19:43.879Z,24
2018-01-15T14:20:46.275Z,24
2018-01-15T14:21:48.683Z,24
2018-01-15T14:22:51.097Z,24
2018-01-15T14:23:53.498Z,24
2018-01-15T14:24:55.914Z,24
2018-01-15T14:25:58.313Z,23
2018-01-15T14:27:00.718Z,23
2018-01-15T14:28:03.420Z,22
2018-01-15T14:29:05.831Z,21
2018-01-15T14:30:08.221Z,20
2018-01-15T14:31:10.660Z,19
2018-01-15T14:32:13.031Z,18
2018-01-15T14:33:15.443Z,17
2018-01-15T14:34:18.138Z,16
2018-01-15T14:35:20.530Z,16
2018-01-15T14:36:22.948Z,15
2018-01-15T14:37:25.366Z,15
2018-01-15T14:38:27.772Z,14
2018-01-15T14:39:30.182Z,14
2018-01-15T14:40:32.718Z,14
2018-01-15T14:41:35.577Z,14
2018-01-15T14:42:37.983Z,14
2018-01-15T14:43:40.397Z,13
2018-01-15T14:44:43.098Z,12
2018-01-15T14:45:45.787Z,12
2018-01-15T14:46:48.192Z,11
2018-01-15T14:47:50.884Z,11
2018-01-15T14:48:53.291Z,10
2018-01-15T14:49:55.984Z,10
2018-01-15T14:50:58.395Z,10
2018-01-15T14:52:01.100Z,10
2018-01-15T14:53:03.504Z,9
2018-01-15T14:54:05.915Z,9
2018-01-15T14:55:08.314Z,9
2018-01-15T14:56:10.740Z,8
2018-01-15T14:57:13.146Z,8
2018-01-15T14:58:15.554Z,8
2018-01-15T14:59:17.956Z,8
2018-01-15T15:00:20.650Z,7
2018-01-15T15:01:23.050Z,7
2018-01-15T15:02:25.454Z,6
2018-01-15T15:03:27.876Z,5
2018-01-15T15:04:30.279Z,5
2018-01-15T15:05:32.968Z,5
2018-01-15T15:06:35.382Z,5